Time;durP1;ratioP1;P1;durP2;ratioP2;P2;SDS_P1;SDS_P2;PMS_P1;PMS_P2;Temp;Humidity;BMP_temperature;BMP_pressure;BME280_temperature;BME280_humidity;BME280_pressure;Samples;Min_cycle;Max_cycle;Signal;HPM_P1;HPM_P2
2021/12/25 00:00:53;;;;;;;1.77;0.93;;;9.80;82.50;;;;;;5092700;28;20217;-72
2021/12/25 00:03:22;;;;;;;2.30;1.05;;;9.80;82.60;;;;;;5093178;28;20197;-73
2021/12/25 00:05:52;;;;;;;1.70;0.90;;;9.90;82.90;;;;;;5093258;28;20186;-72
2021/12/25 00:08:20;;;;;;;2.50;1.25;;;9.90;83.20;;;;;;5092704;28;20644;-73
2021/12/25 00:10:47;;;;;;;2.00;1.10;;;9.80;83.80;;;;;;5092904;28;20276;-73
2021/12/25 00:13:14;;;;;;;1.77;0.93;;;9.90;84.50;;;;;;5092649;28;20647;-73
2021/12/25 00:15:42;;;;;;;1.98;0.90;;;9.90;85.00;;;;;;5092817;28;20276;-72
2021/12/25 00:18:10;;;;;;;1.95;0.90;;;9.90;85.20;;;;;;5092761;28;20188;-73
2021/12/25 00:20:39;;;;;;;1.70;0.95;;;9.90;85.80;;;;;;5092713;28;20213;-72
2021/12/25 00:23:07;;;;;;;1.98;1.23;;;9.90;86.20;;;;;;5092043;28;20189;-73
2021/12/25 00:25:40;;;;;;;5.55;1.45;;;9.80;86.40;;;;;;5092690;28;20193;-72
2021/12/25 00:28:20;;;;;;;2.15;0.80;;;9.80;86.90;;;;;;5092216;28;20524;-73
2021/12/25 00:31:03;;;;;;;2.10;0.98;;;9.80;87.30;;;;;;5092747;28;20193;-73
2021/12/25 00:33:37;;;;;;;1.40;0.60;;;9.80;87.50;;;;;;5092415;28;20194;-72
2021/12/25 00:36:06;;;;;;;1.98;1.00;;;9.80;87.20;;;;;;5092220;28;20178;-73
2021/12/25 00:38:36;;;;;;;1.95;1.05;;;9.80;86.70;;;;;;5092416;28;20205;-72
2021/12/25 00:41:04;;;;;;;2.88;1.38;;;9.70;87.40;;;;;;5091810;28;20249;-72
2021/12/25 00:43:31;;;;;;;1.50;0.70;;;9.70;87.80;;;;;;5092550;28;20186;-72
2021/12/25 00:45:58;;;;;;;1.70;0.90;;;9.60;88.30;;;;;;5092017;28;20193;-72
2021/12/25 00:48:26;;;;;;;2.00;1.10;;;9.60;88.50;;;;;;5092495;28;20189;-72
2021/12/25 00:50:53;;;;;;;2.13;0.90;;;9.60;88.20;;;;;;5092088;28;20647;-75
2021/12/25 00:53:22;;;;;;;2.97;0.98;;;9.60;88.30;;;;;;5072042;28;20640;-72
2021/12/25 00:55:49;;;;;;;1.60;0.70;;;9.60;88.20;;;;;;5071980;28;20222;-73
2021/12/25 00:58:17;;;;;;;2.90;0.85;;;9.50;88.30;;;;;;5091473;28;20780;-73
2021/12/25 01:00:45;;;;;;;2.10;0.90;;;9.50;88.60;;;;;;5091959;28;20267;-73
2021/12/25 01:03:12;;;;;;;1.80;1.05;;;9.50;88.40;;;;;;5092089;28;20193;-72
2021/12/25 01:05:39;;;;;;;1.70;0.90;;;9.40;88.60;;;;;;5092491;28;20185;-72
2021/12/25 01:08:07;;;;;;;2.30;0.98;;;9.40;88.30;;;;;;5091818;28;20182;-73
2021/12/25 01:10:36;;;;;;;2.55;1.20;;;9.40;88.30;;;;;;5092054;28;20194;-73
2021/12/25 01:13:09;;;;;;;2.58;1.17;;;9.40;88.00;;;;;;5095790;28;20193;-72
2021/12/25 01:15:44;;;;;;;1.90;0.82;;;9.40;87.60;;;;;;5096169;28;20675;-73
2021/12/25 01:18:52;;;;;;;1.98;0.98;;;9.40;87.20;;;;;;5096243;28;20246;-73
2021/12/25 01:21:41;;;;;;;1.90;0.90;;;9.30;87.50;;;;;;5075797;28;20702;-73
2021/12/25 01:24:30;;;;;;;1.70;0.70;;;9.20;87.60;;;;;;5080012;28;20189;-72
2021/12/25 01:29:49;;;;;;;2.67;1.00;;;9.20;88.10;;;;;;5095660;28;20262;-72
2021/12/25 01:32:48;;;;;;;2.55;1.30;;;9.20;87.80;;;;;;5096114;28;20189;-73
2021/12/25 01:35:33;;;;;;;1.80;1.05;;;9.20;87.70;;;;;;5095241;28;20208;-72
2021/12/25 01:38:07;;;;;;;2.45;1.10;;;9.20;87.40;;;;;;5095969;28;20193;-73
2021/12/25 01:40:53;;;;;;;1.80;0.80;;;9.20;87.10;;;;;;5095440;28;20215;-73
2021/12/25 01:48:51;;;;;;;2.95;1.05;;;9.20;87.20;;;;;;5095378;28;20192;-72
2021/12/25 01:51:18;;;;;;;2.08;0.80;;;9.20;87.20;;;;;;5095852;28;20193;-74
2021/12/25 01:53:45;;;;;;;1.88;0.90;;;9.10;87.00;;;;;;5095121;28;20640;-73
2021/12/25 01:56:12;;;;;;;1.77;0.80;;;9.10;87.70;;;;;;5095652;28;20224;-73
2021/12/25 01:58:41;;;;;;;1.67;0.90;;;9.00;87.80;;;;;;5095131;28;20193;-73
2021/12/25 02:01:13;;;;;;;1.77;0.80;;;9.00;87.90;;;;;;5095265;28;20274;-72
2021/12/25 02:03:41;;;;;;;1.90;0.73;;;9.00;87.70;;;;;;5094959;28;20193;-73
2021/12/25 02:06:10;;;;;;;1.80;0.90;;;9.00;87.30;;;;;;5095264;28;20207;-73
2021/12/25 02:08:40;;;;;;;2.03;0.90;;;9.00;87.10;;;;;;5094910;28;20189;-73
2021/12/25 02:11:10;;;;;;;1.73;0.82;;;9.00;86.70;;;;;;5075101;28;20194;-73
2021/12/25 02:13:37;;;;;;;1.70;0.65;;;9.00;86.60;;;;;;5074722;28;20193;-73
2021/12/25 02:16:12;;;;;;;1.80;1.00;;;9.00;86.40;;;;;;5094742;28;20182;-73
2021/12/25 02:18:57;;;;;;;1.90;0.90;;;9.00;86.30;;;;;;5094731;28;20196;-73
2021/12/25 02:21:32;;;;;;;1.60;0.80;;;9.10;86.00;;;;;;5095004;28;20311;-72
2021/12/25 02:23:59;;;;;;;1.88;0.80;;;9.10;85.70;;;;;;5094011;28;20264;-73
2021/12/25 02:26:27;;;;;;;1.65;0.82;;;9.00;85.90;;;;;;5094704;28;20705;-73
2021/12/25 02:28:55;;;;;;;1.90;1.13;;;9.10;85.40;;;;;;5094582;28;20189;-72
2021/12/25 02:31:22;;;;;;;2.65;1.08;;;9.00;85.60;;;;;;5094935;28;20276;-72
2021/12/25 02:33:50;;;;;;;5.45;1.52;;;9.00;85.60;;;;;;5094546;28;20527;-72
2021/12/25 02:36:18;;;;;;;1.60;1.00;;;9.00;85.80;;;;;;5094790;28;20260;-73
2021/12/25 02:38:48;;;;;;;2.10;1.00;;;9.10;85.80;;;;;;5094365;28;20636;-73
2021/12/25 02:41:16;;;;;;;3.65;1.10;;;9.10;86.60;;;;;;5094567;28;20218;-73
2021/12/25 02:43:45;;;;;;;1.83;1.10;;;9.10;85.60;;;;;;5094235;28;20235;-72
2021/12/25 02:46:13;;;;;;;1.73;0.80;;;9.20;85.40;;;;;;5094536;28;20196;-72
2021/12/25 02:48:42;;;;;;;1.80;0.90;;;9.20;84.90;;;;;;5094097;28;20365;-73
2021/12/25 02:51:10;;;;;;;2.25;0.80;;;9.00;85.40;;;;;;5094548;28;20254;-72
2021/12/25 02:53:39;;;;;;;2.20;1.20;;;9.00;85.80;;;;;;5093898;28;20709;-73
2021/12/25 02:56:08;;;;;;;2.00;1.00;;;9.10;85.90;;;;;;5094355;28;20225;-73
2021/12/25 02:58:35;;;;;;;1.70;0.90;;;9.10;85.50;;;;;;5094028;28;20593;-73
2021/12/25 03:01:07;;;;;;;1.70;0.82;;;9.10;85.50;;;;;;5094408;28;20217;-73
2021/12/25 03:03:34;;;;;;;1.70;0.80;;;9.10;85.30;;;;;;5094090;28;20189;-72
2021/12/25 03:06:03;;;;;;;3.25;1.40;;;9.10;85.50;;;;;;5094297;28;20194;-72
2021/12/25 03:08:30;;;;;;;1.65;0.73;;;9.10;85.50;;;;;;5093618;28;20190;-73
2021/12/25 03:10:59;;;;;;;2.00;1.00;;;9.10;85.20;;;;;;5093663;28;20193;-73
2021/12/25 03:13:34;;;;;;;2.35;1.20;;;9.10;85.20;;;;;;5093643;28;20189;-73
2021/12/25 03:16:02;;;;;;;1.90;0.95;;;9.00;85.90;;;;;;5094057;28;20197;-73
2021/12/25 03:18:35;;;;;;;2.70;1.88;;;9.00;86.10;;;;;;5093539;28;20593;-72
2021/12/25 03:21:04;;;;;;;2.55;1.63;;;9.00;86.40;;;;;;5094003;28;20256;-73
2021/12/25 03:23:34;;;;;;;1.63;1.00;;;9.00;86.70;;;;;;5093329;28;20186;-73
2021/12/25 03:26:02;;;;;;;2.15;1.20;;;8.90;86.70;;;;;;5093514;28;20239;-72
2021/12/25 03:28:36;;;;;;;1.70;1.00;;;8.90;86.80;;;;;;5093780;28;20644;-72
2021/12/25 03:31:07;;;;;;;2.10;1.10;;;9.00;86.70;;;;;;5093335;28;20663;-73
2021/12/25 03:33:35;;;;;;;2.42;0.85;;;8.90;86.70;;;;;;5093345;28;20188;-73
2021/12/25 03:36:02;;;;;;;2.08;1.20;;;9.00;86.60;;;;;;5092227;28;20239;-73
2021/12/25 03:38:30;;;;;;;2.80;0.90;;;9.00;86.30;;;;;;5093003;28;20195;-72
2021/12/25 03:40:59;;;;;;;2.30;1.05;;;9.10;85.90;;;;;;5093598;28;20197;-73
2021/12/25 03:43:26;;;;;;;2.17;1.30;;;9.00;85.80;;;;;;5093083;28;20592;-72
2021/12/25 03:45:55;;;;;;;3.10;1.25;;;9.10;85.80;;;;;;5093428;28;20193;-74
2021/12/25 03:48:44;;;;;;;2.25;1.00;;;9.10;85.40;;;;;;5093108;28;20311;-72
2021/12/25 03:59:25;;;;;;;2.05;1.20;;;9.00;84.70;;;;;;5092669;28;20605;-73
2021/12/25 04:01:55;;;;;;;2.95;1.02;;;9.00;84.80;;;;;;5093298;28;20225;-72
2021/12/25 04:04:31;;;;;;;2.05;1.10;;;9.00;84.60;;;;;;5092981;28;20268;-73
2021/12/25 04:07:03;;;;;;;3.13;1.77;;;9.00;84.50;;;;;;5093354;28;20340;-72
2021/12/25 04:09:33;;;;;;;2.45;1.02;;;8.80;84.80;;;;;;5092825;28;20213;-72
2021/12/25 04:12:02;;;;;;;2.20;1.05;;;8.70;85.00;;;;;;5093019;28;20640;-73
2021/12/25 04:14:29;;;;;;;2.47;1.20;;;8.60;85.70;;;;;;5092862;28;20222;-71
2021/12/25 04:16:58;;;;;;;2.40;1.00;;;8.60;85.90;;;;;;5093019;28;20359;-73
2021/12/25 04:19:25;;;;;;;1.80;0.90;;;8.60;85.80;;;;;;5092661;28;20318;-74
2021/12/25 04:21:53;;;;;;;2.00;1.08;;;8.50;85.80;;;;;;5092417;28;20279;-73
2021/12/25 04:24:21;;;;;;;2.33;1.10;;;8.60;85.70;;;;;;5092501;28;20221;-72
2021/12/25 04:26:48;;;;;;;2.22;1.00;;;8.60;85.30;;;;;;5092633;28;20232;-73
2021/12/25 04:29:32;;;;;;;1.80;1.02;;;8.60;85.40;;;;;;5092920;28;20636;-73
2021/12/25 04:32:28;;;;;;;1.70;1.10;;;8.50;85.00;;;;;;5092370;28;20193;-73
2021/12/25 05:02:54;;;;;;;1.75;0.70;;;8.50;84.40;;;;;;5091992;28;20233;-73
2021/12/25 05:05:23;;;;;;;1.80;0.80;;;8.60;84.10;;;;;;5092221;28;20715;-74
2021/12/25 05:07:50;;;;;;;2.00;1.00;;;8.60;83.90;;;;;;5092139;28;20178;-72
2021/12/25 05:10:18;;;;;;;1.77;0.70;;;8.60;83.50;;;;;;5092447;28;20215;-73
2021/12/25 05:12:45;;;;;;;2.70;0.90;;;8.70;83.30;;;;;;5092296;28;20254;-73
2021/12/25 05:15:12;;;;;;;5.10;1.38;;;8.70;83.00;;;;;;5092490;28;20189;-72
2021/12/25 05:17:39;;;;;;;2.28;0.90;;;8.80;83.10;;;;;;5091612;28;20189;-73
2021/12/25 05:20:07;;;;;;;1.73;0.80;;;8.80;83.00;;;;;;5092131;28;20189;-73
2021/12/25 05:22:36;;;;;;;2.72;0.80;;;8.80;83.10;;;;;;5092175;28;20221;-73
2021/12/25 05:25:04;;;;;;;2.33;1.15;;;8.80;83.10;;;;;;5091982;28;20185;-73
2021/12/25 05:27:31;;;;;;;2.05;1.00;;;8.90;83.10;;;;;;5092440;28;20556;-73
2021/12/25 05:29:58;;;;;;;2.50;1.30;;;8.90;83.00;;;;;;5091709;28;20281;-73
2021/12/25 05:32:25;;;;;;;2.47;1.20;;;9.00;83.00;;;;;;5092067;28;20232;-73
2021/12/25 05:34:52;;;;;;;2.22;1.20;;;9.00;82.60;;;;;;5091974;28;20189;-72
2021/12/25 05:37:19;;;;;;;1.80;0.93;;;9.10;82.10;;;;;;5092291;28;20225;-72
2021/12/25 05:39:51;;;;;;;3.17;1.10;;;9.10;82.20;;;;;;5091547;28;20601;-73
2021/12/25 05:42:20;;;;;;;2.33;1.20;;;9.10;82.50;;;;;;5092143;28;20239;-73
2021/12/25 05:44:47;;;;;;;1.67;0.98;;;9.20;82.60;;;;;;5091642;28;20182;-73
2021/12/25 05:47:15;;;;;;;1.80;1.00;;;9.20;82.60;;;;;;5092042;28;20198;-73
2021/12/25 05:49:42;;;;;;;1.85;1.08;;;9.20;84.60;;;;;;5091599;28;20250;-73
2021/12/25 05:52:10;;;;;;;2.70;0.80;;;9.20;84.60;;;;;;5091921;28;20731;-72
2021/12/25 05:54:37;;;;;;;2.47;1.15;;;9.20;85.80;;;;;;5091270;28;20236;-72
2021/12/25 05:57:06;;;;;;;1.70;0.82;;;9.20;87.70;;;;;;5091886;28;20193;-73
2021/12/25 05:59:33;;;;;;;2.20;1.08;;;9.30;89.80;;;;;;5094137;28;20182;-73
2021/12/25 06:02:00;;;;;;;2.83;0.80;;;9.30;90.50;;;;;;5095678;28;20279;-72
2021/12/25 06:04:27;;;;;;;2.00;1.25;;;9.40;90.80;;;;;;5095201;28;20602;-72
2021/12/25 06:06:54;;;;;;;2.17;1.05;;;9.40;91.00;;;;;;5095517;28;20190;-72
2021/12/25 06:09:22;;;;;;;2.55;1.88;;;9.40;91.20;;;;;;5095200;28;20255;-71
2021/12/25 06:11:49;;;;;;;2.45;1.95;;;9.40;91.30;;;;;;5095329;28;20201;-72
2021/12/25 06:14:21;;;;;;;1.80;1.00;;;9.40;91.60;;;;;;5095262;28;20547;-72
2021/12/25 06:16:50;;;;;;;2.03;1.20;;;9.40;91.20;;;;;;5095478;28;20302;-71
2021/12/25 06:19:18;;;;;;;2.20;1.17;;;9.40;91.20;;;;;;5094957;28;20213;-73
2021/12/25 06:21:45;;;;;;;1.92;1.20;;;9.50;91.00;;;;;;5095275;28;20282;-73
2021/12/25 06:24:14;;;;;;;2.80;1.00;;;9.50;91.10;;;;;;5094856;28;20217;-73
2021/12/25 06:26:42;;;;;;;1.63;0.70;;;9.60;91.10;;;;;;5095317;28;20224;-73
2021/12/25 06:29:10;;;;;;;2.05;0.82;;;9.50;91.00;;;;;;5094568;28;20636;-73
2021/12/25 06:31:38;;;;;;;1.60;1.00;;;9.50;91.10;;;;;;5095311;28;20281;-73
2021/12/25 06:34:07;;;;;;;3.10;2.10;;;9.50;91.10;;;;;;5094484;28;20221;-73
2021/12/25 06:36:34;;;;;;;2.10;1.60;;;9.50;91.00;;;;;;5095073;28;20221;-73
2021/12/25 06:39:02;;;;;;;4.80;1.10;;;9.60;90.80;;;;;;5094332;28;20246;-73
2021/12/25 06:41:29;;;;;;;1.80;0.80;;;9.60;90.60;;;;;;5094973;28;20585;-73
2021/12/25 06:43:56;;;;;;;2.17;1.10;;;9.60;90.40;;;;;;5094824;28;20259;-73
2021/12/25 06:46:24;;;;;;;2.58;1.33;;;9.50;90.20;;;;;;5094450;28;20273;-72
2021/12/25 06:48:52;;;;;;;2.78;1.67;;;9.50;90.30;;;;;;5094517;28;20196;-72
2021/12/25 06:51:19;;;;;;;1.90;0.90;;;9.50;90.30;;;;;;5094612;28;20181;-72
2021/12/25 06:53:47;;;;;;;1.92;1.00;;;9.50;90.40;;;;;;5094752;28;20663;-72
2021/12/25 06:56:14;;;;;;;2.92;1.65;;;9.50;90.40;;;;;;5093754;28;20217;-75
2021/12/25 06:58:41;;;;;;;1.92;1.17;;;9.50;90.40;;;;;;5094415;28;20201;-73
2021/12/25 07:01:08;;;;;;;2.97;1.33;;;9.50;90.30;;;;;;5094110;28;20526;-72
2021/12/25 07:03:35;;;;;;;4.43;2.47;;;9.60;90.20;;;;;;5094586;28;20773;-73
2021/12/25 07:06:04;;;;;;;4.10;2.28;;;9.50;90.20;;;;;;5094243;28;20186;-72
2021/12/25 07:08:31;;;;;;;4.22;1.50;;;9.50;90.20;;;;;;5094301;28;20189;-73
2021/12/25 07:10:59;;;;;;;61.63;28.17;;;9.50;90.10;;;;;;5093946;28;20193;-73
2021/12/25 07:13:26;;;;;;;23.25;14.07;;;9.50;90.20;;;;;;5094598;28;20228;-72
2021/12/25 07:15:53;;;;;;;3.65;2.72;;;9.40;90.10;;;;;;5094011;28;20662;-72
2021/12/25 07:18:21;;;;;;;2.10;1.30;;;9.40;89.90;;;;;;5094346;28;20194;-72
2021/12/25 07:20:50;;;;;;;2.55;1.88;;;9.50;90.00;;;;;;5093957;28;20185;-73
2021/12/25 07:23:19;;;;;;;2.10;1.08;;;9.50;89.70;;;;;;5094021;28;20643;-74
2021/12/25 07:25:47;;;;;;;2.47;1.30;;;9.50;89.30;;;;;;5093788;28;20182;-73
2021/12/25 07:28:16;;;;;;;3.72;1.70;;;9.50;89.40;;;;;;5094164;28;20582;-73
2021/12/25 07:30:45;;;;;;;2.33;1.33;;;9.50;89.40;;;;;;5093511;28;20284;-73
2021/12/25 07:33:12;;;;;;;2.60;1.90;;;9.50;89.50;;;;;;5094000;28;20367;-72
2021/12/25 07:35:39;;;;;;;2.67;1.40;;;9.50;89.30;;;;;;5093678;28;20232;-72
2021/12/25 07:38:06;;;;;;;2.22;1.80;;;9.50;88.80;;;;;;5093865;28;20200;-73
2021/12/25 07:40:35;;;;;;;6.03;4.45;;;9.60;88.30;;;;;;5093142;28;20192;-73
2021/12/25 07:43:02;;;;;;;5.10;2.83;;;9.60;88.40;;;;;;5093388;28;20728;-72
2021/12/25 07:45:29;;;;;;;6.72;5.00;;;9.70;88.00;;;;;;5090837;28;20185;-73
2021/12/25 07:48:00;;;;;;;3.10;2.60;;;9.80;88.10;;;;;;5083586;28;20221;-73
2021/12/25 07:50:28;;;;;;;3.25;2.20;;;9.90;86.90;;;;;;5091114;28;20197;-73
2021/12/25 07:52:56;;;;;;;2.70;1.65;;;9.90;87.00;;;;;;5090809;28;20181;-72
2021/12/25 07:55:23;;;;;;;2.60;1.85;;;10.00;86.10;;;;;;5085373;28;20233;-72
2021/12/25 07:57:52;;;;;;;2.75;2.10;;;10.10;85.80;;;;;;5077686;28;20243;-72
2021/12/25 08:00:19;;;;;;;4.88;2.67;;;10.20;85.40;;;;;;5090951;28;20185;-71
2021/12/25 08:02:47;;;;;;;2.95;1.60;;;10.30;85.40;;;;;;5090356;28;20245;-72
2021/12/25 08:05:14;;;;;;;5.63;3.85;;;10.30;84.50;;;;;;5090752;28;20278;-72
2021/12/25 08:07:41;;;;;;;4.03;2.38;;;10.30;84.70;;;;;;5090408;28;20194;-72
2021/12/25 08:10:13;;;;;;;4.50;2.92;;;10.20;83.90;;;;;;5090640;28;20215;-72
2021/12/25 08:12:43;;;;;;;2.28;1.70;;;10.20;84.20;;;;;;5089862;28;20589;-72
2021/12/25 08:15:13;;;;;;;2.33;1.50;;;10.20;82.80;;;;;;5084261;28;20197;-72
2021/12/25 08:17:40;;;;;;;2.70;1.30;;;10.20;82.80;;;;;;5075797;28;20189;-72
2021/12/25 08:20:08;;;;;;;2.30;1.45;;;10.30;82.90;;;;;;5089823;28;20190;-71
2021/12/25 08:22:36;;;;;;;2.00;1.02;;;10.40;81.80;;;;;;5089665;28;20214;-72
2021/12/25 08:25:04;;;;;;;2.20;1.13;;;10.40;81.20;;;;;;5090339;28;20202;-73
2021/12/25 08:27:35;;;;;;;2.40;1.50;;;10.50;81.10;;;;;;5089959;28;20197;-73
2021/12/25 08:30:04;;;;;;;3.28;1.30;;;10.50;81.10;;;;;;5090627;28;20197;-72
2021/12/25 08:32:32;;;;;;;3.33;2.05;;;10.50;79.90;;;;;;5089784;28;20295;-73
2021/12/25 08:34:59;;;;;;;3.70;2.75;;;10.50;79.80;;;;;;5090254;28;20189;-72
2021/12/25 08:37:27;;;;;;;3.35;3.05;;;10.50;79.60;;;;;;5072237;28;20201;-73
2021/12/25 08:39:55;;;;;;;4.28;3.88;;;10.50;78.70;;;;;;5089890;28;20276;-72
2021/12/25 08:42:23;;;;;;;4.32;3.92;;;10.60;79.50;;;;;;5089464;28;20200;-72
2021/12/25 08:45:04;;;;;;;3.97;2.67;;;10.70;80.30;;;;;;5089673;28;20604;-72
2021/12/25 08:47:36;;;;;;;3.88;2.60;;;10.80;80.10;;;;;;5089892;28;20674;-72
2021/12/25 08:50:06;;;;;;;3.03;2.72;;;10.80;78.80;;;;;;5089563;28;20197;-72
2021/12/25 08:52:33;;;;;;;4.20;2.50;;;10.80;79.00;;;;;;5089499;28;20663;-73
2021/12/25 08:55:00;;;;;;;9.02;1.92;;;10.90;79.20;;;;;;5089901;28;20229;-73
2021/12/25 08:57:28;;;;;;;3.65;1.88;;;11.00;77.30;;;;;;5090309;28;20310;-72
2021/12/25 08:59:57;;;;;;;2.80;1.50;;;11.00;77.00;;;;;;5089518;28;20189;-73
2021/12/25 09:02:25;;;;;;;2.22;1.40;;;11.00;76.50;;;;;;5089840;28;20189;-72
2021/12/25 09:04:53;;;;;;;3.03;1.60;;;11.00;76.40;;;;;;5089903;28;20280;-73
2021/12/25 09:07:21;;;;;;;3.63;2.10;;;11.00;76.10;;;;;;5088728;28;20536;-72
2021/12/25 09:09:48;;;;;;;2.60;1.50;;;11.10;76.20;;;;;;5090464;28;20614;-73
2021/12/25 09:12:17;;;;;;;2.70;1.40;;;11.20;76.20;;;;;;5089471;28;20333;-73
2021/12/25 09:14:44;;;;;;;2.70;1.30;;;11.30;76.20;;;;;;5090170;28;20197;-72
2021/12/25 09:17:12;;;;;;;2.90;1.60;;;11.40;75.20;;;;;;5089588;28;20232;-72
2021/12/25 09:19:40;;;;;;;3.30;1.70;;;11.50;73.50;;;;;;5089214;28;20185;-73
2021/12/25 09:22:09;;;;;;;2.90;2.00;;;11.60;73.80;;;;;;5080414;28;20192;-73
2021/12/25 09:24:37;;;;;;;2.17;1.40;;;11.50;73.80;;;;;;5071732;28;20225;-72
2021/12/25 09:27:05;;;;;;;3.88;1.63;;;11.50;74.90;;;;;;5071754;28;20201;-72
2021/12/25 09:29:32;;;;;;;5.78;1.90;;;11.50;75.20;;;;;;5087616;28;20197;-73
2021/12/25 09:31:59;;;;;;;6.20;2.60;;;11.40;74.90;;;;;;5090304;28;20185;-72
2021/12/25 09:34:27;;;;;;;3.33;2.28;;;11.30;75.30;;;;;;5093174;28;20524;-72
2021/12/25 09:36:54;;;;;;;3.75;1.70;;;11.30;75.60;;;;;;5093452;28;20182;-73
2021/12/25 09:39:28;;;;;;;4.30;2.38;;;11.20;75.80;;;;;;5093966;28;20198;-73
2021/12/25 09:41:56;;;;;;;2.92;1.35;;;11.20;76.30;;;;;;5091135;28;20245;-73
2021/12/25 09:44:28;;;;;;;1.75;0.85;;;11.20;77.30;;;;;;5093453;28;20263;-72
2021/12/25 09:46:55;;;;;;;3.05;1.80;;;11.10;78.10;;;;;;5093226;28;20190;-72
2021/12/25 09:49:23;;;;;;;3.72;2.05;;;11.10;78.60;;;;;;5092962;28;20243;-72
2021/12/25 09:51:50;;;;;;;5.07;2.65;;;10.90;78.70;;;;;;5092995;28;20272;-72
2021/12/25 09:54:18;;;;;;;2.42;1.77;;;10.90;79.60;;;;;;5093141;28;20263;-72
2021/12/25 09:56:49;;;;;;;4.63;1.95;;;10.80;80.20;;;;;;5092984;28;20281;-73
2021/12/25 09:59:16;;;;;;;2.60;1.73;;;10.80;80.70;;;;;;5079698;28;20268;-73
2021/12/25 10:01:45;;;;;;;2.40;1.13;;;10.70;81.00;;;;;;5084745;28;20186;-73
2021/12/25 10:04:31;;;;;;;2.38;1.45;;;10.70;81.10;;;;;;5093226;28;20217;-73
2021/12/25 10:06:59;;;;;;;2.55;1.88;;;10.70;81.20;;;;;;5090881;28;20194;-72
2021/12/25 10:09:27;;;;;;;6.97;1.63;;;10.60;82.00;;;;;;5084943;28;20190;-73
2021/12/25 10:12:05;;;;;;;3.50;1.88;;;10.60;81.70;;;;;;5084313;28;20243;-73
2021/12/25 10:14:32;;;;;;;2.38;1.10;;;10.60;82.00;;;;;;5092740;28;20711;-75
2021/12/25 10:17:11;;;;;;;2.40;1.33;;;10.60;81.20;;;;;;5092753;28;20198;-72
2021/12/25 10:19:39;;;;;;;3.55;1.40;;;10.70;81.00;;;;;;5090221;28;20197;-73
2021/12/25 10:22:08;;;;;;;3.20;2.20;;;10.80;80.20;;;;;;5092972;28;20233;-73
2021/12/25 10:24:47;;;;;;;2.40;1.27;;;11.00;79.40;;;;;;5092394;28;20639;-73
2021/12/25 10:27:19;;;;;;;3.22;2.05;;;11.20;80.20;;;;;;5091248;28;20193;-74
2021/12/25 10:29:48;;;;;;;3.33;1.67;;;11.30;77.50;;;;;;5092169;28;20186;-73
2021/12/25 10:32:19;;;;;;;2.95;1.33;;;11.40;77.70;;;;;;5092735;28;20193;-73
2021/12/25 10:34:48;;;;;;;2.60;1.10;;;11.60;77.70;;;;;;5092080;28;20182;-73
2021/12/25 10:37:19;;;;;;;2.22;1.42;;;11.80;76.90;;;;;;5082966;28;20232;-73
2021/12/25 10:39:53;;;;;;;2.00;1.00;;;12.00;76.30;;;;;;5091256;28;20189;-72
2021/12/25 10:42:23;;;;;;;1.90;1.33;;;12.30;73.90;;;;;;5086837;28;21009;-73
2021/12/25 10:44:54;;;;;;;2.70;1.55;;;12.40;73.90;;;;;;5087681;28;20213;-72
2021/12/25 10:47:23;;;;;;;3.43;1.50;;;12.50;73.50;;;;;;5092750;28;20550;-71
2021/12/25 10:49:52;;;;;;;2.30;1.47;;;12.60;73.40;;;;;;5092146;28;20443;-71
2021/12/25 10:52:27;;;;;;;1.90;1.20;;;12.80;73.80;;;;;;5088299;28;20472;-73
2021/12/25 10:54:56;;;;;;;2.20;1.60;;;13.00;71.40;;;;;;5092150;28;20474;-72
2021/12/25 10:57:37;;;;;;;4.80;3.15;;;13.00;71.20;;;;;;5091671;28;20799;-73
2021/12/25 11:00:07;;;;;;;2.10;0.90;;;13.00;71.20;;;;;;5092729;28;20646;-72
2021/12/25 11:02:37;;;;;;;2.70;2.10;;;12.90;70.80;;;;;;5092047;28;20476;-72
2021/12/25 11:05:21;;;;;;;3.70;2.87;;;12.90;70.70;;;;;;5092545;28;20565;-72
2021/12/25 11:08:02;;;;;;;3.17;2.00;;;12.80;70.10;;;;;;5090996;28;20989;-73
2021/12/25 11:10:29;;;;;;;2.20;1.60;;;12.70;70.00;;;;;;5092573;28;20428;-72
2021/12/25 11:12:58;;;;;;;2.23;1.27;;;12.70;70.20;;;;;;5091729;28;20869;-73
2021/12/25 11:15:29;;;;;;;2.87;1.40;;;12.60;69.80;;;;;;5092266;28;20447;-73
2021/12/25 11:18:05;;;;;;;3.20;1.20;;;12.50;69.80;;;;;;5091517;28;20481;-72
2021/12/25 11:20:37;;;;;;;2.50;1.10;;;12.50;70.40;;;;;;5090957;28;20435;-72
2021/12/25 11:23:07;;;;;;;4.63;1.90;;;12.50;70.80;;;;;;5091659;28;20526;-72
2021/12/25 11:25:37;;;;;;;2.40;1.30;;;12.40;70.00;;;;;;5089546;28;20910;-72
2021/12/25 11:28:09;;;;;;;2.73;1.40;;;12.40;70.50;;;;;;5090720;28;20993;-73
2021/12/25 11:30:41;;;;;;;2.70;1.27;;;12.40;69.80;;;;;;5088398;28;20443;-72
2021/12/25 11:33:08;;;;;;;2.80;1.40;;;12.40;71.10;;;;;;5090351;28;20467;-73
2021/12/25 11:35:36;;;;;;;2.77;1.50;;;12.40;70.70;;;;;;5089447;28;20507;-73
2021/12/25 11:38:05;;;;;;;3.30;2.00;;;12.50;70.80;;;;;;5090169;28;20481;-73
2021/12/25 11:40:59;;;;;;;2.50;1.50;;;12.50;70.30;;;;;;5089528;28;20531;-71
2021/12/25 11:44:00;;;;;;;4.80;3.23;;;12.70;71.20;;;;;;5089642;28;20458;-72
2021/12/25 11:46:38;;;;;;;2.40;1.20;;;12.90;70.30;;;;;;5086655;28;20439;-73
2021/12/25 11:51:44;;;;;;;1.67;0.80;;;12.90;67.90;;;;;;5043800;22;20501;-73
2021/12/25 11:54:40;;;;;;;1.97;1.00;;;12.80;67.80;;;;;;5029561;28;20191;-73
2021/12/25 11:57:31;;;;;;;2.00;1.03;;;12.80;67.80;;;;;;5014684;28;20890;-73
2021/12/25 12:00:00;;;;;;;1.90;0.80;;;12.80;67.50;;;;;;5029036;28;20425;-73
2021/12/25 12:02:39;;;;;;;2.63;1.00;;;12.70;67.60;;;;;;5012589;28;21007;-74
2021/12/25 12:05:37;;;;;;;2.08;1.15;;;12.60;67.70;;;;;;5028081;28;20494;-73
2021/12/25 12:08:19;;;;;;;1.97;1.27;;;12.50;67.90;;;;;;5030055;28;20230;-72
2021/12/25 12:10:51;;;;;;;5.27;1.30;;;12.40;68.10;;;;;;5025180;28;20506;-73
2021/12/25 12:13:23;;;;;;;2.92;2.25;;;12.30;67.90;;;;;;5013216;28;20546;-73
2021/12/25 12:15:57;;;;;;;2.37;1.50;;;12.20;68.40;;;;;;5028905;28;20219;-73
2021/12/25 12:18:42;;;;;;;5.28;1.30;;;12.20;68.60;;;;;;5022662;28;20467;-72
2021/12/25 12:21:35;;;;;;;1.90;0.93;;;12.10;68.70;;;;;;5026616;28;20188;-73
2021/12/25 12:27:06;;;;;;;2.43;1.33;;;12.00;68.70;;;;;;5023405;28;20200;-73
2021/12/25 12:30:00;;;;;;;2.07;1.50;;;11.90;67.90;;;;;;5029317;28;20438;-72
2021/12/25 12:32:43;;;;;;;2.35;1.23;;;11.90;68.80;;;;;;5028369;28;20943;-73
2021/12/25 12:35:29;;;;;;;2.20;0.93;;;11.90;69.30;;;;;;5026658;28;20195;-73
2021/12/25 12:38:11;;;;;;;1.60;0.80;;;11.90;69.00;;;;;;5014626;28;20279;-72
2021/12/25 12:40:38;;;;;;;1.98;0.88;;;11.90;68.70;;;;;;5022454;28;20273;-73
2021/12/25 12:43:05;;;;;;;3.35;0.98;;;11.90;69.00;;;;;;5025437;28;20191;-72
2021/12/25 12:45:37;;;;;;;3.10;1.30;;;11.80;69.60;;;;;;5019172;28;20684;-73
2021/12/25 12:48:15;;;;;;;1.80;1.00;;;11.80;70.10;;;;;;5024097;28;20572;-72
2021/12/25 12:50:45;;;;;;;2.50;0.85;;;11.70;70.20;;;;;;5015856;28;20306;-72
2021/12/25 12:53:17;;;;;;;2.40;1.40;;;11.80;70.30;;;;;;5028374;28;20184;-73
2021/12/25 12:55:46;;;;;;;3.33;1.50;;;11.80;70.40;;;;;;5028866;28;20511;-73
2021/12/25 12:58:16;;;;;;;3.03;1.52;;;11.70;70.00;;;;;;5028816;28;20521;-73
2021/12/25 13:00:49;;;;;;;4.88;1.13;;;11.70;70.50;;;;;;5025866;28;20274;-74
2021/12/25 13:03:18;;;;;;;2.53;1.30;;;11.70;70.10;;;;;;5028918;28;20669;-73
2021/12/25 13:05:51;;;;;;;2.35;1.13;;;11.60;70.30;;;;;;5027782;28;20555;-73
2021/12/25 13:08:23;;;;;;;2.75;1.52;;;11.50;70.70;;;;;;5024877;28;20191;-72
2021/12/25 13:10:52;;;;;;;4.53;2.28;;;11.50;70.70;;;;;;5017393;28;20674;-72
2021/12/25 13:13:22;;;;;;;4.18;2.75;;;11.40;71.10;;;;;;5012926;28;20246;-73
2021/12/25 13:15:55;;;;;;;2.80;1.30;;;11.40;71.20;;;;;;5027316;28;20230;-72
2021/12/25 13:18:30;;;;;;;1.85;0.98;;;11.30;71.20;;;;;;5028529;28;20270;-73
2021/12/25 13:21:00;;;;;;;3.05;1.77;;;11.30;71.60;;;;;;5026439;28;20187;-73
2021/12/25 13:23:33;;;;;;;2.17;1.90;;;11.30;72.00;;;;;;5033721;28;20188;-73
2021/12/25 13:26:03;;;;;;;2.95;2.28;;;11.30;72.10;;;;;;5015391;28;20220;-72
2021/12/25 13:28:32;;;;;;;2.72;2.45;;;11.20;72.40;;;;;;5025200;28;20196;-73
2021/12/25 13:31:04;;;;;;;3.23;2.90;;;11.30;72.50;;;;;;5023156;28;20570;-73
2021/12/25 13:33:35;;;;;;;3.60;2.63;;;11.20;73.00;;;;;;5021876;28;20430;-76
2021/12/25 13:36:06;;;;;;;3.38;1.60;;;11.10;73.20;;;;;;5017555;28;20269;-73
2021/12/25 13:38:49;;;;;;;2.88;2.03;;;11.10;73.00;;;;;;5013217;28;20224;-72
2021/12/25 13:41:31;;;;;;;2.00;1.17;;;11.10;73.40;;;;;;5028028;28;20196;-72
2021/12/25 13:44:10;;;;;;;2.08;1.23;;;11.10;73.70;;;;;;5028832;28;20231;-73
2021/12/25 13:46:39;;;;;;;2.10;1.02;;;11.10;74.00;;;;;;5021960;28;20196;-73
2021/12/25 13:49:07;;;;;;;2.35;0.95;;;11.00;73.70;;;;;;5026102;28;20194;-73
2021/12/25 13:51:41;;;;;;;2.03;1.23;;;11.00;74.10;;;;;;5024128;28;20219;-72
2021/12/25 13:54:18;;;;;;;1.77;0.90;;;11.00;74.40;;;;;;5025083;28;20548;-72
2021/12/25 13:56:46;;;;;;;4.10;1.67;;;11.00;74.70;;;;;;5015324;28;20239;-73
2021/12/25 13:59:13;;;;;;;2.40;1.20;;;11.00;75.00;;;;;;5024224;28;20200;-72
2021/12/25 14:01:41;;;;;;;1.90;1.10;;;11.00;75.60;;;;;;5011809;28;20247;-73